Time;durP1;ratioP1;P1;durP2;ratioP2;P2;SDS_P1;SDS_P2;PMS_P1;PMS_P2;Temp;Humidity;BMP_temperature;BMP_pressure;BME280_temperature;BME280_humidity;BME280_pressure;Samples;Min_cycle;Max_cycle;Signal;HPM_P1;HPM_P2
2023/05/04 00:02:11;;;;;;;5.57;3.92;;;;;;;12.43;84.21;99024.00;5108917;28;20047;-93
2023/05/04 00:04:37;;;;;;;5.63;3.97;;;;;;;12.44;85.04;99038.22;5111100;28;20038;-93
2023/05/04 00:07:03;;;;;;;6.13;4.00;;;;;;;12.48;84.64;99039.88;5116017;28;20043;-92
2023/05/04 00:09:30;;;;;;;6.38;3.97;;;;;;;12.43;84.65;99036.47;5108855;28;20415;-93
2023/05/04 00:11:56;;;;;;;6.68;3.97;;;;;;;12.50;84.63;99043.38;5109886;28;20089;-93
2023/05/04 00:14:22;;;;;;;5.90;4.20;;;;;;;12.42;85.00;99032.06;5111694;28;20081;-93
2023/05/04 00:16:48;;;;;;;5.20;4.00;;;;;;;12.40;84.48;99012.56;5105967;28;20134;-93
2023/05/04 00:19:17;;;;;;;5.80;3.90;;;;;;;12.46;84.18;99018.56;5106727;28;20572;-94
2023/05/04 00:21:43;;;;;;;5.82;4.07;;;;;;;12.64;83.95;99034.94;5115891;28;20439;-93
2023/05/04 00:24:09;;;;;;;5.78;4.03;;;;;;;12.49;83.81;99018.50;5110303;28;20039;-93
2023/05/04 00:26:35;;;;;;;5.47;3.80;;;;;;;12.42;84.24;99010.72;5111372;28;20036;-93
2023/05/04 00:29:01;;;;;;;6.05;3.92;;;;;;;12.42;83.71;99010.72;5110896;28;20050;-93
2023/05/04 00:31:27;;;;;;;4.97;3.90;;;;;;;12.62;84.03;99051.00;5104885;28;20036;-92
2023/05/04 00:33:53;;;;;;;6.10;3.95;;;;;;;12.44;84.34;99036.41;5105990;28;20032;-92
2023/05/04 00:36:20;;;;;;;5.60;3.88;;;;;;;12.43;84.48;99028.47;5097103;28;20047;-92
2023/05/04 00:38:48;;;;;;;5.95;4.07;;;;;;;12.43;85.03;99028.47;5094881;28;20123;-93
2023/05/04 00:41:14;;;;;;;6.40;4.57;;;;;;;12.22;84.79;98998.00;5094640;28;20067;-93
2023/05/04 00:43:40;;;;;;;5.80;4.35;;;;;;;12.18;84.65;98993.66;5094700;28;20040;-93
2023/05/04 00:46:05;;;;;;;5.80;3.72;;;;;;;12.16;84.91;98988.38;5094208;28;20032;-93
2023/05/04 00:48:31;;;;;;;6.22;4.35;;;;;;;12.25;85.05;98997.88;5094538;28;20036;-93
2023/05/04 00:50:57;;;;;;;5.65;4.10;;;;;;;12.21;85.13;98997.13;5094575;28;20102;-93
2023/05/04 00:53:25;;;;;;;9.40;4.60;;;;;;;12.18;85.66;98999.00;5092415;28;20040;-93
2023/05/04 00:55:51;;;;;;;5.93;4.50;;;;;;;12.10;86.39;99002.78;5094407;28;20040;-93
2023/05/04 00:58:17;;;;;;;6.93;4.18;;;;;;;11.93;87.38;98991.75;5093968;28;20036;-94
2023/05/04 01:00:43;;;;;;;5.57;4.32;;;;;;;11.83;87.71;99001.75;5093739;28;20059;-95
2023/05/04 01:03:09;;;;;;;7.28;4.57;;;;;;;12.06;87.43;99019.78;5094735;28;20040;-92
2023/05/04 01:05:40;;;;;;;6.50;4.40;;;;;;;11.91;87.60;98998.91;5092975;28;20050;-93
2023/05/04 01:08:12;;;;;;;5.72;4.38;;;;;;;12.05;87.72;99033.13;5094062;28;20044;-94
2023/05/04 01:10:46;;;;;;;5.70;4.10;;;;;;;12.12;86.79;99035.59;5093778;28;20069;-92
2023/05/04 01:13:15;;;;;;;5.55;4.18;;;;;;;11.90;87.94;99013.13;5093410;28;20036;-92
2023/05/04 01:15:41;;;;;;;6.45;4.88;;;;;;;12.12;87.06;99035.59;5093517;28;20036;-94
2023/05/04 01:18:07;;;;;;;5.28;4.05;;;;;;;12.06;86.77;99019.78;5093488;28;20127;-92
2023/05/04 01:20:34;;;;;;;9.02;5.00;;;;;;;12.06;86.97;99014.44;5093818;28;20093;-93
2023/05/04 01:23:01;;;;;;;5.65;4.35;;;;;;;12.11;86.78;99001.84;5093628;28;20040;-93
2023/05/04 01:25:33;;;;;;;5.63;4.18;;;;;;;12.11;86.76;99016.97;5093645;28;20032;-93
2023/05/04 01:28:05;;;;;;;7.18;4.40;;;;;;;12.05;86.98;99007.34;5093891;28;20375;-92
2023/05/04 01:30:36;;;;;;;5.15;4.10;;;;;;;12.16;87.06;99033.69;5092925;28;20054;-93
2023/05/04 01:33:03;;;;;;;6.88;4.25;;;;;;;11.99;87.58;99018.22;5093414;28;20040;-92
2023/05/04 01:35:29;;;;;;;6.72;4.55;;;;;;;11.98;88.47;99032.44;5093323;28;20066;-93
2023/05/04 01:37:55;;;;;;;6.30;3.92;;;;;;;11.84;88.35;99008.84;5093302;28;20043;-92
2023/05/04 01:40:22;;;;;;;6.13;4.57;;;;;;;11.75;88.35;99001.06;5093029;28;20379;-93
2023/05/04 01:42:48;;;;;;;6.55;4.10;;;;;;;12.01;87.74;99032.34;5093558;28;20438;-93
2023/05/04 01:45:14;;;;;;;5.72;4.53;;;;;;;12.08;87.74;99043.72;5092881;28;20059;-93
2023/05/04 01:47:40;;;;;;;6.55;4.60;;;;;;;11.88;87.44;99002.53;5093753;28;20038;-92
2023/05/04 01:50:07;;;;;;;6.53;4.20;;;;;;;12.06;87.45;99029.56;5093278;28;20043;-93
2023/05/04 01:52:32;;;;;;;7.25;4.40;;;;;;;12.08;87.74;99033.94;5093655;28;20050;-92
2023/05/04 01:54:58;;;;;;;6.22;4.63;;;;;;;12.02;87.60;99017.25;5093174;28;20036;-94
2023/05/04 01:57:26;;;;;;;6.32;4.30;;;;;;;12.01;87.40;99020.81;5093306;28;20047;-93
2023/05/04 01:59:51;;;;;;;6.50;4.28;;;;;;;11.94;87.99;99021.91;5093379;28;20404;-93
2023/05/04 02:02:17;;;;;;;6.70;4.38;;;;;;;11.92;88.58;99038.81;5093093;28;20046;-93
2023/05/04 02:04:43;;;;;;;6.07;4.20;;;;;;;11.89;88.76;99044.25;5093121;28;20036;-93
2023/05/04 02:07:09;;;;;;;7.50;4.53;;;;;;;11.84;88.65;99039.91;5093395;28;20042;-94
2023/05/04 02:09:35;;;;;;;7.55;4.35;;;;;;;11.77;89.39;99044.53;5093190;28;20097;-94
2023/05/04 02:12:02;;;;;;;8.68;4.68;;;;;;;11.48;90.14;99011.59;5093249;28;20136;-93
2023/05/04 02:14:29;;;;;;;6.50;4.55;;;;;;;11.69;90.48;99050.09;5093464;28;20059;-92
2023/05/04 02:16:55;;;;;;;6.80;4.72;;;;;;;11.66;90.63;99051.94;5092566;28;20040;-93
2023/05/04 02:19:21;;;;;;;6.78;4.93;;;;;;;11.38;90.99;99019.84;5093158;28;20580;-93
2023/05/04 02:21:47;;;;;;;6.53;4.45;;;;;;;11.50;91.51;99038.19;5093253;28;20055;-93
2023/05/04 02:24:13;;;;;;;6.97;5.00;;;;;;;11.49;91.17;99034.66;5092842;28;20485;-92
2023/05/04 02:26:38;;;;;;;7.90;4.88;;;;;;;11.39;90.88;99017.16;5093274;28;20036;-93
2023/05/04 02:29:05;;;;;;;6.20;4.78;;;;;;;11.49;91.18;99045.31;5092836;28;20130;-91
2023/05/04 02:31:32;;;;;;;6.38;4.75;;;;;;;11.28;91.99;99032.53;5092601;28;20443;-92
2023/05/04 02:33:59;;;;;;;5.68;4.50;;;;;;;11.21;92.40;99023.84;5092805;28;20063;-93
2023/05/04 02:36:25;;;;;;;6.63;4.95;;;;;;;11.23;92.55;99035.34;5101864;28;20043;-92
2023/05/04 02:38:51;;;;;;;8.15;4.72;;;;;;;11.36;92.66;99050.97;5107615;28;20040;-93
2023/05/04 02:41:17;;;;;;;6.95;5.03;;;;;;;11.30;93.05;99052.03;5103293;28;20382;-93
2023/05/04 02:43:43;;;;;;;7.32;4.50;;;;;;;11.13;93.02;99012.50;5098295;28;20082;-93
2023/05/04 02:46:09;;;;;;;6.55;5.00;;;;;;;11.22;93.37;99049.53;5106662;28;20084;-93
2023/05/04 02:48:36;;;;;;;8.93;4.78;;;;;;;11.12;94.22;99050.69;5099699;28;20043;-93
2023/05/04 02:51:07;;;;;;;6.75;4.88;;;;;;;10.83;95.30;99041.63;5107365;28;20046;-93
2023/05/04 02:53:32;;;;;;;7.80;5.15;;;;;;;10.70;95.85;99026.88;5100772;28;20039;-93
2023/05/04 02:56:05;;;;;;;7.05;5.30;;;;;;;10.78;95.90;99046.19;5103634;28;20092;-94
2023/05/04 02:58:31;;;;;;;6.28;4.78;;;;;;;10.95;95.91;99063.50;5102528;28;20074;-92
2023/05/04 03:00:57;;;;;;;7.97;4.68;;;;;;;10.88;95.46;99042.38;5106035;28;20408;-93
2023/05/04 03:03:23;;;;;;;7.30;5.05;;;;;;;10.94;95.99;99061.78;5102595;28;20131;-93
2023/05/04 03:05:52;;;;;;;7.07;4.70;;;;;;;10.89;96.52;99061.91;5107794;28;20043;-94
2023/05/04 03:08:18;;;;;;;;;;;;;;;10.81;97.49;99074.50;5111055;28;20442;-92
2023/05/04 03:10:43;;;;;;;7.32;5.32;;;;;;;10.53;98.04;99031.69;5108386;28;19920;-93
2023/05/04 03:13:09;;;;;;;7.60;5.55;;;;;;;10.66;97.96;99057.09;5113925;28;20507;-93
2023/05/04 03:15:35;;;;;;;6.65;5.40;;;;;;;10.56;97.92;99044.91;5104203;28;20070;-92
2023/05/04 03:18:01;;;;;;;8.30;5.80;;;;;;;10.55;97.65;99043.19;5113764;28;20047;-93
2023/05/04 03:20:27;;;;;;;8.10;5.18;;;;;;;10.65;97.21;99044.72;5111793;28;20040;-93
2023/05/04 03:22:55;;;;;;;8.05;5.28;;;;;;;10.94;96.74;99085.72;5100128;28;20044;-93
2023/05/04 03:25:20;;;;;;;9.05;5.40;;;;;;;10.74;96.64;99041.84;5107435;28;20062;-91
2023/05/04 03:27:46;;;;;;;7.22;5.15;;;;;;;10.86;96.90;99068.16;5112925;28;20075;-92
2023/05/04 03:30:12;;;;;;;8.35;5.13;;;;;;;10.80;96.74;99054.09;5108237;28;20040;-92
2023/05/04 03:32:38;;;;;;;7.32;5.60;;;;;;;10.85;96.72;99060.22;5107865;28;20044;-92
2023/05/04 03:35:05;;;;;;;9.88;5.55;;;;;;;10.94;96.65;99073.28;5104236;28;20406;-93
2023/05/04 03:37:31;;;;;;;10.60;5.32;;;;;;;10.80;97.20;99048.78;5104715;28;20066;-92
2023/05/04 03:39:58;;;;;;;7.50;5.15;;;;;;;10.90;96.38;99066.28;5110352;28;20542;-91
2023/05/04 03:42:24;;;;;;;8.10;5.82;;;;;;;10.98;95.69;99058.13;5103602;28;20134;-92
2023/05/04 03:44:49;;;;;;;8.50;5.60;;;;;;;11.15;94.93;99071.91;5108720;28;20127;-92
2023/05/04 03:47:15;;;;;;;8.73;5.63;;;;;;;11.19;94.28;99076.25;5112741;28;20071;-93
2023/05/04 03:49:41;;;;;;;9.30;6.05;;;;;;;11.05;94.22;99057.06;5098921;28;20375;-93
2023/05/04 03:52:07;;;;;;;7.00;5.50;;;;;;;11.06;94.86;99072.09;5107382;28;20063;-92
2023/05/04 03:54:33;;;;;;;8.10;5.95;;;;;;;10.86;95.00;99038.00;5106772;28;20086;-91
2023/05/04 03:57:03;;;;;;;7.50;6.20;;;;;;;11.16;94.41;99076.31;5115081;28;20059;-93
2023/05/04 03:59:29;;;;;;;9.70;5.50;;;;;;;11.00;94.96;99065.16;5110286;28;20059;-91
2023/05/04 04:01:55;;;;;;;8.75;6.25;;;;;;;10.88;96.01;99068.09;5109959;28;20066;-92
2023/05/04 04:04:21;;;;;;;9.00;6.25;;;;;;;10.78;96.30;99056.81;5115697;28;20035;-92
2023/05/04 04:06:46;;;;;;;9.00;6.38;;;;;;;10.95;96.04;99083.03;5113471;28;20069;-93
2023/05/04 04:09:12;;;;;;;7.78;6.03;;;;;;;10.83;95.70;99060.25;5111887;28;20052;-92
2023/05/04 04:11:38;;;;;;;8.40;6.15;;;;;;;11.05;95.15;99084.53;5115788;28;20036;-91
2023/05/04 04:14:05;;;;;;;8.10;5.97;;;;;;;11.04;95.53;99077.50;5108105;28;20039;-91
2023/05/04 04:16:31;;;;;;;7.85;5.78;;;;;;;11.00;95.17;99073.16;5101114;28;20028;-92
2023/05/04 04:18:57;;;;;;;8.60;6.18;;;;;;;10.97;94.57;99051.91;5109593;28;20043;-92
2023/05/04 04:21:23;;;;;;;7.45;5.50;;;;;;;11.22;94.10;99092.13;5102166;28;20035;-91
2023/05/04 04:23:49;;;;;;;7.28;5.38;;;;;;;11.12;93.95;99065.78;5108558;28;20047;-92
2023/05/04 04:26:15;;;;;;;7.80;6.28;;;;;;;11.18;93.58;99070.94;5108373;28;20122;-91
2023/05/04 04:28:43;;;;;;;7.88;5.07;;;;;;;11.36;92.70;99074.94;5103083;28;20044;-92
2023/05/04 04:31:10;;;;;;;7.80;5.80;;;;;;;11.26;92.17;99050.34;5109031;28;20088;-91
2023/05/04 04:33:36;;;;;;;7.25;5.20;;;;;;;11.43;91.88;99079.22;5109988;28;20084;-92
2023/05/04 04:36:03;;;;;;;7.90;5.70;;;;;;;11.52;90.75;99077.16;5103275;28;20044;-93
2023/05/04 04:38:28;;;;;;;8.43;5.97;;;;;;;11.72;90.21;99100.63;5095789;28;20451;-93
2023/05/04 04:40:54;;;;;;;8.02;5.53;;;;;;;11.74;90.21;99103.25;5095087;28;20047;-92
2023/05/04 04:43:20;;;;;;;7.45;5.10;;;;;;;11.66;90.32;99084.78;5094945;28;20440;-94
2023/05/04 04:45:46;;;;;;;6.70;5.10;;;;;;;11.54;89.78;99063.81;5094921;28;20089;-92
2023/05/04 04:48:13;;;;;;;6.78;5.07;;;;;;;11.71;89.62;99072.25;5095222;28;20501;-93
2023/05/04 04:50:39;;;;;;;9.55;5.80;;;;;;;11.81;88.41;99082.63;5095035;28;20032;-93
2023/05/04 04:53:05;;;;;;;9.85;5.32;;;;;;;11.95;87.86;99092.94;5095157;28;20507;-93
2023/05/04 04:55:31;;;;;;;6.65;4.95;;;;;;;12.04;87.24;99090.06;5095346;28;20405;-93
2023/05/04 04:57:57;;;;;;;7.22;5.20;;;;;;;11.91;87.73;99078.84;5095196;28;20123;-94
2023/05/04 05:00:23;;;;;;;6.93;5.57;;;;;;;12.06;87.64;99104.22;5090237;28;20067;-93
2023/05/04 05:02:48;;;;;;;6.15;4.80;;;;;;;12.05;87.53;99105.97;5094618;28;20572;-94
2023/05/04 05:05:16;;;;;;;7.55;5.07;;;;;;;12.16;87.46;99110.16;5094752;28;20044;-94
2023/05/04 05:07:42;;;;;;;6.60;5.00;;;;;;;12.17;87.23;99111.91;5094644;28;20433;-94
2023/05/04 05:10:09;;;;;;;7.03;4.70;;;;;;;12.18;87.32;99116.31;5094668;28;20062;-93
2023/05/04 05:12:35;;;;;;;6.93;4.82;;;;;;;12.03;87.47;99088.28;5094788;28;20485;-93
2023/05/04 05:15:03;;;;;;;7.38;4.70;;;;;;;12.26;87.07;99098.31;5094786;28;20097;-93
2023/05/04 05:17:29;;;;;;;6.47;4.90;;;;;;;12.61;84.99;99104.41;5093397;28;20428;-92
2023/05/04 05:19:55;;;;;;;6.57;5.15;;;;;;;12.90;83.54;99119.50;5092179;28;20040;-93
2023/05/04 05:22:22;;;;;;;6.50;4.68;;;;;;;13.10;81.35;99100.22;5093329;28;20157;-92
2023/05/04 05:24:48;;;;;;;5.30;4.45;;;;;;;13.44;80.60;99124.03;5093921;28;20105;-93
2023/05/04 05:27:14;;;;;;;6.72;4.80;;;;;;;13.25;80.73;99093.47;5093839;28;20044;-94
2023/05/04 05:29:40;;;;;;;6.78;4.90;;;;;;;13.10;81.93;99095.75;5093900;28;20089;-93
2023/05/04 05:32:06;;;;;;;6.32;4.88;;;;;;;13.42;79.81;99098.31;5092912;28;20409;-93
2023/05/04 05:34:32;;;;;;;5.90;4.75;;;;;;;13.66;78.53;99116.22;5093444;28;20044;-94
2023/05/04 05:36:58;;;;;;;6.85;4.88;;;;;;;13.83;78.49;99123.63;5104389;28;20134;-93
2023/05/04 05:39:26;;;;;;;7.05;4.78;;;;;;;13.90;78.22;99135.88;5104755;28;20036;-94
2023/05/04 05:41:56;;;;;;;7.30;5.13;;;;;;;13.76;77.64;99119.41;5104404;28;20059;-93
2023/05/04 05:44:22;;;;;;;7.00;5.05;;;;;;;13.68;79.31;99135.69;5111004;28;20080;-94
2023/05/04 05:46:48;;;;;;;6.68;4.88;;;;;;;13.69;78.45;99125.91;5108888;28;20497;-92
2023/05/04 05:49:13;;;;;;;5.80;4.55;;;;;;;13.77;78.67;99119.38;5106358;28;20046;-94
2023/05/04 05:51:40;;;;;;;6.03;4.97;;;;;;;13.94;76.80;99116.13;5101453;28;20040;-94
2023/05/04 05:54:06;;;;;;;8.45;5.20;;;;;;;13.55;79.15;99123.69;5102900;28;20039;-93
2023/05/04 05:56:33;;;;;;;7.07;4.95;;;;;;;13.91;78.21;99105.53;5111985;28;20036;-93
2023/05/04 05:58:59;;;;;;;7.68;4.70;;;;;;;13.69;78.97;99118.75;5105651;28;20043;-92
2023/05/04 06:01:26;;;;;;;6.82;4.88;;;;;;;13.90;76.95;99121.59;5108693;28;20040;-94
2023/05/04 06:03:52;;;;;;;6.78;5.20;;;;;;;13.69;78.22;99126.78;5104529;28;20040;-92
2023/05/04 06:06:18;;;;;;;7.15;5.03;;;;;;;13.72;78.46;99139.16;5104285;28;20136;-95
2023/05/04 06:08:44;;;;;;;7.35;5.20;;;;;;;13.89;78.72;99122.53;5110921;28;20039;-94
2023/05/04 06:11:10;;;;;;;8.32;5.05;;;;;;;14.22;76.68;99143.66;5106874;28;20103;-93
2023/05/04 06:13:38;;;;;;;7.47;5.30;;;;;;;14.29;75.64;99142.50;5108720;28;20035;-94
2023/05/04 06:16:04;;;;;;;6.25;4.65;;;;;;;14.36;75.06;99096.75;5103829;28;20032;-93
2023/05/04 06:18:30;;;;;;;6.30;4.70;;;;;;;14.75;73.48;99095.34;5101858;28;20101;-96
2023/05/04 06:20:59;;;;;;;7.50;5.38;;;;;;;14.67;73.90;99121.53;5107300;28;20450;-93
2023/05/04 06:23:27;;;;;;;8.50;4.78;;;;;;;14.70;72.93;99100.88;5101318;28;20043;-94
2023/05/04 06:25:55;;;;;;;7.35;5.30;;;;;;;14.76;71.33;99097.06;5105184;28;20103;-93
2023/05/04 06:28:24;;;;;;;6.85;4.95;;;;;;;15.28;70.95;99126.28;5108738;28;20050;-95
2023/05/04 06:30:52;;;;;;;7.95;5.32;;;;;;;15.28;69.45;99104.84;5105031;28;20405;-95
2023/05/04 06:33:18;;;;;;;8.13;5.28;;;;;;;15.35;70.97;99136.69;5104101;28;20047;-92
2023/05/04 06:35:44;;;;;;;8.02;5.43;;;;;;;15.09;71.87;99134.16;5105467;28;20501;-94
2023/05/04 06:38:10;;;;;;;6.38;4.95;;;;;;;15.04;73.16;99136.16;5107639;28;20047;-94
2023/05/04 06:40:36;;;;;;;6.25;4.82;;;;;;;15.06;70.35;99145.88;5109339;28;20040;-93
2023/05/04 06:43:02;;;;;;;8.55;5.63;;;;;;;14.77;72.45;99136.31;5107008;28;20040;-93
2023/05/04 06:45:28;;;;;;;6.90;4.93;;;;;;;14.92;71.14;99105.38;5107609;28;20081;-93
2023/05/04 06:47:56;;;;;;;6.95;5.13;;;;;;;15.26;72.26;99120.97;5112154;28;20504;-95
2023/05/04 06:50:22;;;;;;;5.95;4.85;;;;;;;15.18;70.31;99099.00;5108040;28;20043;-93
2023/05/04 06:52:48;;;;;;;7.22;5.13;;;;;;;15.19;71.24;99123.03;5111507;28;20134;-95
2023/05/04 06:55:14;;;;;;;6.93;5.05;;;;;;;15.37;71.05;99099.97;5108210;28;20040;-92
2023/05/04 06:57:40;;;;;;;7.07;4.70;;;;;;;15.08;71.02;99103.84;5107268;28;20392;-93
2023/05/04 07:00:07;;;;;;;8.10;4.60;;;;;;;15.41;69.81;99090.00;5105467;28;20044;-93
2023/05/04 07:02:33;;;;;;;6.43;5.00;;;;;;;15.48;70.56;99120.09;5119292;28;20036;-93
2023/05/04 07:05:01;;;;;;;6.60;4.90;;;;;;;15.83;67.43;99105.25;5108237;28;20047;-94
2023/05/04 07:07:27;;;;;;;6.72;4.65;;;;;;;15.67;67.80;99096.94;5102959;28;20086;-94
2023/05/04 07:09:53;;;;;;;9.20;4.68;;;;;;;15.96;66.88;99117.19;5102089;28;20048;-95
2023/05/04 07:12:18;;;;;;;6.18;4.15;;;;;;;15.72;67.26;99091.41;5103811;28;20040;-93
2023/05/04 07:14:44;;;;;;;7.82;4.63;;;;;;;15.94;66.72;99085.97;5106408;28;20043;-94
2023/05/04 07:17:10;;;;;;;6.35;4.63;;;;;;;16.31;66.01;99111.16;5098762;28;20040;-94
2023/05/04 07:19:36;;;;;;;9.10;4.65;;;;;;;16.68;63.23;99101.47;5105269;28;20405;-95
2023/05/04 07:22:03;;;;;;;6.25;4.78;;;;;;;16.48;63.85;99105.94;5110220;28;20044;-92
2023/05/04 07:24:30;;;;;;;5.55;4.20;;;;;;;16.57;64.40;99124.31;5110506;28;20036;-93
2023/05/04 07:26:55;;;;;;;5.80;4.40;;;;;;;16.37;64.48;99101.06;5107612;28;20036;-94
2023/05/04 07:29:21;;;;;;;5.22;4.07;;;;;;;16.67;61.97;99118.50;5110551;28;20509;-93
2023/05/04 07:31:47;;;;;;;5.78;4.15;;;;;;;16.59;62.19;99125.09;5105194;28;20047;-95
2023/05/04 07:34:13;;;;;;;7.00;4.50;;;;;;;16.91;61.70;99125.44;5114224;28;20556;-93
2023/05/04 07:36:39;;;;;;;5.30;4.22;;;;;;;17.04;62.12;99129.31;5097647;28;20097;-95
2023/05/04 07:39:06;;;;;;;6.85;4.57;;;;;;;17.26;61.82;99109.44;5093429;28;20059;-96
2023/05/04 07:41:32;;;;;;;5.47;4.10;;;;;;;17.31;62.77;99126.22;5093653;28;20097;-94
2023/05/04 07:43:58;;;;;;;5.35;4.53;;;;;;;17.26;60.01;99122.88;5096747;28;20035;-93
2023/05/04 07:46:24;;;;;;;6.40;4.20;;;;;;;17.30;60.76;99105.66;5096292;28;20036;-94
2023/05/04 07:48:50;;;;;;;6.28;4.25;;;;;;;17.66;60.79;99131.66;5098601;28;20050;-95
2023/05/04 07:51:16;;;;;;;6.85;4.78;;;;;;;17.90;58.29;99121.50;5097365;28;20040;-93
2023/05/04 07:53:42;;;;;;;6.38;4.85;;;;;;;17.92;58.22;99105.28;5096274;28;20463;-95
2023/05/04 07:56:11;;;;;;;5.47;4.43;;;;;;;18.10;57.66;99122.28;5095957;28;20051;-94
2023/05/04 07:58:37;;;;;;;6.35;4.05;;;;;;;18.41;57.98;99132.28;5096016;28;20036;-95
2023/05/04 08:01:03;;;;;;;5.70;4.47;;;;;;;17.57;60.17;99113.31;5097760;28;20040;-95
2023/05/04 08:03:30;;;;;;;6.03;4.13;;;;;;;18.15;58.67;99109.44;5098036;28;20062;-94
2023/05/04 08:05:57;;;;;;;6.22;4.65;;;;;;;18.30;56.69;99105.09;5098366;28;20036;-95
2023/05/04 08:08:23;;;;;;;6.78;4.65;;;;;;;18.46;58.38;99132.94;5096537;28;20043;-95
2023/05/04 08:10:48;;;;;;;6.45;4.65;;;;;;;17.77;60.80;99113.16;5098170;28;20044;-93
2023/05/04 08:13:16;;;;;;;6.68;4.63;;;;;;;18.47;58.08;99118.50;5095911;28;20036;-94
2023/05/04 08:15:42;;;;;;;6.05;4.70;;;;;;;18.10;58.59;99127.66;5098775;28;20036;-94
2023/05/04 08:18:08;;;;;;;6.57;4.30;;;;;;;18.74;56.64;99113.47;5096934;28;20040;-94
2023/05/04 08:20:34;;;;;;;6.50;4.32;;;;;;;19.03;53.37;99116.38;5097571;28;20405;-94
2023/05/04 08:23:02;;;;;;;6.43;3.72;;;;;;;19.09;53.36;99095.34;5097899;28;20047;-95
2023/05/04 08:25:28;;;;;;;5.40;3.97;;;;;;;19.34;53.46;99120.88;5097317;28;20041;-94
2023/05/04 08:27:55;;;;;;;5.70;3.78;;;;;;;19.00;54.42;99097.69;5098306;28;20300;-94
2023/05/04 08:30:22;;;;;;;5.78;4.15;;;;;;;19.16;51.35;99108.47;5097495;28;20055;-93
2023/05/04 08:32:50;;;;;;;5.47;3.80;;;;;;;19.34;51.48;99109.25;5096905;28;20036;-94
2023/05/04 08:35:16;;;;;;;4.65;3.90;;;;;;;18.98;52.79;99094.22;5096342;28;20066;-94
2023/05/04 08:37:42;;;;;;;5.18;4.05;;;;;;;18.72;56.44;99115.38;5096875;28;20107;-94
2023/05/04 08:40:08;;;;;;;6.07;4.03;;;;;;;18.73;54.04;99091.97;5096989;28;20048;-95
2023/05/04 08:42:34;;;;;;;5.95;3.70;;;;;;;19.28;52.24;99111.34;5096688;28;20044;-94
2023/05/04 08:45:00;;;;;;;5.30;3.53;;;;;;;19.21;52.24;99115.31;5096474;28;20485;-93
2023/05/04 08:47:27;;;;;;;5.60;3.67;;;;;;;19.25;52.07;99116.91;5096134;28;20512;-93
2023/05/04 08:49:57;;;;;;;6.43;4.00;;;;;;;19.14;51.90;99094.22;5097446;28;20047;-94
2023/05/04 08:52:24;;;;;;;4.60;3.47;;;;;;;18.36;53.90;99088.59;5098082;28;20047;-93
2023/05/04 08:54:54;;;;;;;6.10;3.67;;;;;;;18.45;54.74;99115.91;5096926;28;20047;-93
2023/05/04 08:57:22;;;;;;;5.03;3.60;;;;;;;18.58;52.97;99080.22;5097613;28;20093;-93
2023/05/04 08:59:51;;;;;;;4.68;3.35;;;;;;;19.11;52.03;99108.75;5096845;28;20378;-94
2023/05/04 09:02:17;;;;;;;;;;;;;;;19.07;53.05;99115.25;5096599;28;20048;-94
2023/05/04 09:04:45;;;;;;;4.30;3.45;;;;;;;19.45;51.35;99094.19;5095651;28;19969;-94
2023/05/04 09:07:11;;;;;;;4.90;3.53;;;;;;;19.05;51.66;99103.69;5087650;28;20127;-94
2023/05/04 09:09:37;;;;;;;5.97;3.92;;;;;;;19.12;50.38;99088.03;5081202;28;20046;-95
2023/05/04 09:12:04;;;;;;;6.80;4.00;;;;;;;19.50;50.52;99102.00;5096171;28;20043;-94
2023/05/04 09:14:34;;;;;;;4.38;3.58;;;;;;;19.46;49.29;99071.66;5096782;28;20062;-94
2023/05/04 09:17:00;;;;;;;4.82;3.55;;;;;;;19.63;49.76;99104.88;5095847;28;20048;-93
2023/05/04 09:19:32;;;;;;;4.53;3.30;;;;;;;19.70;48.46;99080.16;5096079;28;20488;-94
2023/05/04 09:21:59;;;;;;;6.63;3.90;;;;;;;19.72;47.95;99095.38;5096561;28;20036;-94
2023/05/04 09:24:26;;;;;;;5.45;3.60;;;;;;;19.74;47.99;99093.47;5097806;28;20123;-95
2023/05/04 09:26:52;;;;;;;6.47;3.78;;;;;;;19.97;48.92;99076.72;5095328;28;20046;-94
2023/05/04 09:29:18;;;;;;;5.13;3.63;;;;;;;20.06;47.43;99087.00;5096531;28;20044;-94
2023/05/04 09:31:44;;;;;;;5.70;4.10;;;;;;;20.21;47.94;99106.78;5095459;28;20508;-94
2023/05/04 09:34:10;;;;;;;6.03;3.50;;;;;;;20.41;47.64;99104.69;5095039;28;20047;-94
2023/05/04 09:36:36;;;;;;;5.18;3.53;;;;;;;20.41;49.04;99104.69;5107958;28;20493;-93
2023/05/04 09:39:11;;;;;;;4.90;3.72;;;;;;;20.47;47.60;99115.09;5106396;28;20090;-95
2023/05/04 09:41:36;;;;;;;4.53;3.53;;;;;;;20.47;48.00;99097.06;5107794;28;20039;-94
2023/05/04 09:44:03;;;;;;;6.35;3.38;;;;;;;20.39;45.69;99082.31;5115702;28;20065;-95
2023/05/04 09:46:30;;;;;;;6.25;3.38;;;;;;;20.36;46.98;99094.16;5106641;28;20509;-93
2023/05/04 09:48:56;;;;;;;5.05;3.85;;;;;;;20.49;47.15;99099.66;5111469;28;20077;-94
2023/05/04 09:51:26;;;;;;;4.78;3.65;;;;;;;20.60;47.00;99097.22;5111119;28;20603;-95
2023/05/04 09:53:52;;;;;;;5.95;3.75;;;;;;;19.92;47.96;99075.28;5116081;28;20047;-95
2023/05/04 09:56:41;;;;;;;5.25;3.75;;;;;;;19.49;49.05;99089.47;5107635;28;20039;-93
2023/05/04 09:59:08;;;;;;;5.18;4.18;;;;;;;19.74;48.54;99075.44;5114752;28;20088;-95
2023/05/04 10:01:35;;;;;;;4.68;3.45;;;;;;;19.96;47.70;99083.13;5109710;28;20051;-95
2023/05/04 10:04:04;;;;;;;4.60;3.50;;;;;;;19.94;48.82;99063.44;5111098;28;20070;-94
2023/05/04 10:06:31;;;;;;;4.88;3.47;;;;;;;19.92;47.53;99072.59;5114539;28;20085;-94
2023/05/04 10:08:59;;;;;;;4.68;3.55;;;;;;;20.15;48.30;99082.88;5105038;28;20084;-94
2023/05/04 10:11:25;;;;;;;5.15;3.88;;;;;;;19.73;49.20;99060.19;5109839;28;20122;-94
2023/05/04 10:13:55;;;;;;;5.63;4.30;;;;;;;19.48;49.39;99095.84;5109615;28;20067;-95
2023/05/04 10:16:35;;;;;;;5.68;3.72;;;;;;;19.66;50.39;99093.88;5115985;28;20089;-94
2023/05/04 10:19:34;;;;;;;6.05;3.90;;;;;;;20.02;50.54;99089.97;5104638;28;20047;-94
2023/05/04 10:22:16;;;;;;;5.68;3.42;;;;;;;20.47;47.42;99061.97;5107089;28;20043;-94
2023/05/04 10:25:06;;;;;;;5.10;3.63;;;;;;;20.93;46.24;99093.31;5110018;28;20068;-94
2023/05/04 10:27:44;;;;;;;5.80;3.83;;;;;;;20.99;46.74;99076.72;5110231;28;20035;-95
2023/05/04 10:30:15;;;;;;;6.95;3.67;;;;;;;21.08;46.40;99064.44;5098983;28;20493;-93
2023/05/04 10:32:41;;;;;;;4.75;3.50;;;;;;;20.69;47.30;99037.16;5103708;28;20427;-92
2023/05/04 10:35:08;;;;;;;7.93;4.15;;;;;;;21.05;46.36;99078.13;5104123;28;20461;-94
2023/05/04 10:37:37;;;;;;;5.93;3.60;;;;;;;20.97;45.92;99040.78;5102181;28;20406;-92
2023/05/04 10:40:05;;;;;;;5.30;3.65;;;;;;;21.21;45.33;99057.22;5096739;28;20044;-93
2023/05/04 10:42:40;;;;;;;4.65;3.50;;;;;;;21.13;46.01;99048.75;5105846;28;20043;-94
2023/05/04 10:45:08;;;;;;;4.53;3.35;;;;;;;21.21;46.01;99067.16;5104127;28;20039;-93
2023/05/04 10:47:39;;;;;;;6.43;3.65;;;;;;;21.19;45.84;99044.75;5104852;28;20411;-95
2023/05/04 10:50:06;;;;;;;5.68;3.50;;;;;;;21.04;45.25;99052.94;5102358;28;20051;-94
2023/05/04 10:52:45;;;;;;;5.85;3.85;;;;;;;20.53;47.19;99042.63;5099932;28;20362;-91
2023/05/04 10:55:11;;;;;;;4.72;3.70;;;;;;;20.69;47.07;99029.06;5111521;28;20047;-93
2023/05/04 10:57:48;;;;;;;5.57;3.78;;;;;;;20.81;45.54;99031.94;5106678;28;20039;-93
2023/05/04 11:00:15;;;;;;;5.43;3.45;;;;;;;20.79;46.16;99058.19;5094596;28;20051;-91
2023/05/04 11:02:42;;;;;;;5.20;3.63;;;;;;;20.65;47.41;99021.25;5111783;28;20059;-91
2023/05/04 11:05:14;;;;;;;5.45;3.95;;;;;;;20.62;45.93;99030.41;5102547;28;20044;-93
2023/05/04 11:07:40;;;;;;;5.10;3.58;;;;;;;20.58;47.28;99052.31;5103874;28;20096;-93
2023/05/04 11:10:08;;;;;;;4.70;3.70;;;;;;;20.86;46.40;99059.53;5101389;28;20040;-92
2023/05/04 11:12:36;;;;;;;5.03;3.93;;;;;;;20.76;47.23;99047.59;5110806;28;20202;-94
2023/05/04 11:15:03;;;;;;;4.90;3.50;;;;;;;20.65;46.90;99024.81;5108052;28;20276;-92
2023/05/04 11:17:29;;;;;;;4.65;3.72;;;;;;;20.19;46.65;99027.72;5101943;28;20038;-94
2023/05/04 11:19:57;;;;;;;4.82;3.83;;;;;;;19.99;47.18;99044.25;5108263;28;20036;-94
2023/05/04 11:22:23;;;;;;;5.80;4.00;;;;;;;19.92;48.96;99005.97;5107833;28;20259;-94
2023/05/04 11:24:49;;;;;;;4.95;4.20;;;;;;;20.07;49.41;99005.03;5112945;28;20039;-93
2023/05/04 11:27:22;;;;;;;5.18;3.80;;;;;;;20.41;48.00;99040.72;5113656;28;20032;-93
2023/05/04 11:29:55;;;;;;;5.47;3.47;;;;;;;20.76;48.15;99042.19;5109007;28;20048;-93
2023/05/04 11:32:21;;;;;;;6.43;3.70;;;;;;;20.96;46.69;99021.97;5111510;28;20457;-94
2023/05/04 11:34:47;;;;;;;5.28;3.65;;;;;;;20.87;47.43;99007.22;5109772;27;20075;-95